createdAt,value
2019-04-23T00:01:54.310Z,3.70
2019-04-23T00:04:19.645Z,3.80
2019-04-23T00:06:59.339Z,3.50
2019-04-23T00:09:32.885Z,4.10
2019-04-23T00:11:54.277Z,4.10
2019-04-23T00:14:20.676Z,3.90
2019-04-23T00:16:50.341Z,3.67
2019-04-23T00:19:20.652Z,3.90
2019-04-23T00:22:08.756Z,3.53
2019-04-23T00:27:24.075Z,4.10
2019-04-23T00:29:46.212Z,3.80
2019-04-23T00:32:15.116Z,4.20
2019-04-23T00:37:18.796Z,4.10
2019-04-23T00:39:48.122Z,3.80
2019-04-23T00:44:54.284Z,3.83
2019-04-23T00:47:46.762Z,4.33
2019-04-23T00:50:06.437Z,3.90
2019-04-23T00:55:05.445Z,4.00
2019-04-23T00:57:35.481Z,4.50
2019-04-23T01:00:02.046Z,3.90
2019-04-23T01:02:33.527Z,4.17
2019-04-23T01:05:08.798Z,4.20
2019-04-23T01:07:34.938Z,4.17
2019-04-23T01:09:59.713Z,4.47
2019-04-23T01:12:37.554Z,4.20
2019-04-23T01:15:02.854Z,4.73
2019-04-23T01:18:22.180Z,4.67
2019-04-23T01:20:01.614Z,4.20
2019-04-23T01:22:14.806Z,4.70
2019-04-23T01:24:46.700Z,5.00
2019-04-23T01:32:36.935Z,4.70
2019-04-23T01:37:49.306Z,4.83
2019-04-23T01:40:18.795Z,5.30
2019-04-23T01:42:44.057Z,4.67
2019-04-23T01:45:19.800Z,5.20
2019-04-23T01:55:21.343Z,4.80
2019-04-23T02:00:22.285Z,4.37
2019-04-23T02:02:49.812Z,4.90
2019-04-23T02:05:22.900Z,4.93
2019-04-23T02:07:51.020Z,4.83
2019-04-23T02:10:25.845Z,5.00
2019-04-23T02:12:47.690Z,4.47
2019-04-23T02:15:16.817Z,5.03
2019-04-23T02:17:52.071Z,5.00
2019-04-23T02:20:23.843Z,4.83
2019-04-23T02:23:01.447Z,5.00
2019-04-23T02:28:25.472Z,5.27
2019-04-23T02:30:59.837Z,5.03
2019-04-23T02:33:29.426Z,5.03
2019-04-23T02:35:55.580Z,5.50
2019-04-23T02:38:10.160Z,5.30
2019-04-23T02:43:20.146Z,5.43
2019-04-23T02:46:00.191Z,5.90
2019-04-23T02:48:24.771Z,5.23
2019-04-23T02:53:27.795Z,5.50
2019-04-23T02:55:50.180Z,5.10
2019-04-23T03:01:08.960Z,5.07
2019-04-23T03:03:28.086Z,4.70
2019-04-23T03:05:50.665Z,5.63
2019-04-23T03:10:59.968Z,5.67
2019-04-23T03:13:29.631Z,6.07
2019-04-23T03:21:26.931Z,5.67
2019-04-23T03:24:34.962Z,5.47
2019-04-23T03:39:24.551Z,6.07
2019-04-23T03:44:20.774Z,6.20
2019-04-23T03:46:44.852Z,6.07
2019-04-23T03:49:15.140Z,6.03
2019-04-23T03:51:56.277Z,5.83
2019-04-23T03:59:26.614Z,6.20
2019-04-23T04:07:05.410Z,6.40
2019-04-23T04:09:26.000Z,6.40
2019-04-23T04:11:33.772Z,6.27
2019-04-23T04:14:38.892Z,6.37
2019-04-23T04:19:29.345Z,6.33
2019-04-23T04:21:55.589Z,6.53
2019-04-23T04:29:21.633Z,6.07
2019-04-23T04:32:00.311Z,6.47
2019-04-23T04:41:56.981Z,6.40
2019-04-23T04:44:38.389Z,6.93
2019-04-23T04:46:53.188Z,6.33
2019-04-23T04:49:23.294Z,7.13
2019-04-23T04:52:08.506Z,6.23
2019-04-23T04:54:21.209Z,6.50
2019-04-23T04:56:51.398Z,6.43
2019-04-23T04:59:17.725Z,6.57
2019-04-23T05:09:25.307Z,15.10
2019-04-23T05:11:52.301Z,10.63
2019-04-23T05:14:26.913Z,8.47
2019-04-23T05:16:50.702Z,5.90
2019-04-23T05:19:29.563Z,6.20
2019-04-23T05:26:37.586Z,5.27
2019-04-23T05:29:11.756Z,5.87
2019-04-23T05:31:42.674Z,6.23
2019-04-23T05:34:29.389Z,5.77
2019-04-23T05:36:45.689Z,5.33
2019-04-23T05:39:26.903Z,5.67
2019-04-23T05:47:07.180Z,5.20
2019-04-23T05:51:50.751Z,5.43
2019-04-23T05:56:43.801Z,5.43
2019-04-23T06:04:19.078Z,4.87
2019-04-23T06:11:54.242Z,5.53
2019-04-23T06:21:57.481Z,5.30
2019-04-23T06:24:21.163Z,4.93
2019-04-23T06:26:49.339Z,5.10
2019-04-23T06:29:20.970Z,5.27
2019-04-23T06:34:17.171Z,4.70
2019-04-23T06:36:46.056Z,5.30
2019-04-23T06:39:15.844Z,4.77
2019-04-23T06:41:46.324Z,4.73
2019-04-23T06:44:24.070Z,4.83
2019-04-23T06:46:50.572Z,4.57
2019-04-23T06:51:55.125Z,5.00
2019-04-23T06:54:18.261Z,4.93
2019-04-23T06:59:20.285Z,4.93
2019-04-23T07:01:53.252Z,5.03
2019-04-23T07:04:18.177Z,5.20
2019-04-23T07:06:58.207Z,5.03
2019-04-23T07:14:12.429Z,4.87
2019-04-23T07:16:48.285Z,4.90
2019-04-23T07:19:26.813Z,4.70
2019-04-23T07:21:50.612Z,4.77
2019-04-23T07:24:36.263Z,4.70
2019-04-23T07:26:42.058Z,4.80
2019-04-23T07:31:55.388Z,4.90
2019-04-23T07:34:18.451Z,4.50
2019-04-23T07:36:48.382Z,5.07
2019-04-23T07:39:38.474Z,5.03
2019-04-23T07:42:24.810Z,4.60
2019-04-23T07:47:50.829Z,5.30
2019-04-23T07:50:23.163Z,4.47
2019-04-23T07:52:51.360Z,5.00
2019-04-23T07:55:27.003Z,5.20
2019-04-23T07:57:49.302Z,5.00
2019-04-23T08:00:23.657Z,4.70
2019-04-23T08:02:52.417Z,4.83
2019-04-23T08:07:53.672Z,4.97
2019-04-23T08:10:18.908Z,4.70
2019-04-23T08:12:48.854Z,4.87
2019-04-23T08:15:21.561Z,4.90
2019-04-23T08:17:43.471Z,4.53
2019-04-23T08:20:11.144Z,4.80
2019-04-23T08:22:45.548Z,4.70
2019-04-23T08:25:37.277Z,4.90
2019-04-23T08:28:01.711Z,4.70
2019-04-23T08:30:23.993Z,5.20
2019-04-23T08:32:57.348Z,4.67
2019-04-23T08:35:27.319Z,4.87
2019-04-23T08:38:20.990Z,4.67
2019-04-23T08:40:28.426Z,4.43
2019-04-23T08:43:00.908Z,4.23
2019-04-23T08:45:31.298Z,4.73
2019-04-23T08:48:15.586Z,4.43
2019-04-23T08:53:21.475Z,4.67
2019-04-23T08:55:43.035Z,5.10
2019-04-23T08:58:11.855Z,4.80
2019-04-23T09:00:49.929Z,4.60
2019-04-23T09:03:10.883Z,4.40
2019-04-23T09:10:42.317Z,4.57
2019-04-23T09:13:36.792Z,4.67
2019-04-23T09:18:10.881Z,4.50
2019-04-23T09:20:31.264Z,4.70
2019-04-23T09:23:08.114Z,4.80
2019-04-23T09:25:40.729Z,4.70
2019-04-23T09:28:09.562Z,4.40
2019-04-23T09:30:38.871Z,4.57
2019-04-23T09:33:28.866Z,4.30
2019-04-23T09:35:57.356Z,4.87
2019-04-23T09:38:38.303Z,4.57
2019-04-23T09:41:22.331Z,4.80
2019-04-23T09:43:55.644Z,4.50
2019-04-23T09:46:47.868Z,4.67
2019-04-23T09:49:20.447Z,4.23
2019-04-23T09:51:45.154Z,4.37
2019-04-23T09:54:16.228Z,5.20
2019-04-23T10:01:36.174Z,4.97
2019-04-23T10:04:03.987Z,4.57
2019-04-23T10:06:26.557Z,5.03
2019-04-23T10:08:58.649Z,5.17
2019-04-23T10:11:28.422Z,4.80
2019-04-23T10:13:56.793Z,4.87
2019-04-23T10:16:30.121Z,5.00
2019-04-23T10:18:57.291Z,4.90
2019-04-23T10:21:29.265Z,5.03
2019-04-23T10:26:53.717Z,4.73
2019-04-23T10:29:27.812Z,5.00
2019-04-23T10:32:02.103Z,4.63
2019-04-23T10:34:47.925Z,4.37
2019-04-23T10:37:05.387Z,4.60
2019-04-23T10:39:37.849Z,4.43
2019-04-23T10:42:05.854Z,4.83
2019-04-23T10:45:08.814Z,4.73
2019-04-23T10:48:07.471Z,5.03
2019-04-23T10:53:25.884Z,4.47
2019-04-23T10:58:16.364Z,4.50
2019-04-23T11:03:42.452Z,4.13
2019-04-23T11:05:59.001Z,4.40
2019-04-23T11:08:27.282Z,5.30
2019-04-23T11:14:00.129Z,4.63
2019-04-23T11:19:49.344Z,4.60
2019-04-23T11:22:34.396Z,4.60
2019-04-23T11:24:48.846Z,4.47
2019-04-23T11:27:14.658Z,5.33
2019-04-23T11:29:49.585Z,4.43
2019-04-23T11:32:41.184Z,4.83
2019-04-23T11:35:03.246Z,5.13
2019-04-23T11:37:24.457Z,4.80
2019-04-23T11:39:45.066Z,4.87
2019-04-23T11:44:47.217Z,4.70
2019-04-23T11:47:42.487Z,4.70
2019-04-23T11:52:17.898Z,4.77
2019-04-23T11:54:43.632Z,5.40
2019-04-23T11:59:51.953Z,4.50
2019-04-23T12:02:12.057Z,5.30
2019-04-23T12:07:22.925Z,4.50
2019-04-23T12:12:32.833Z,4.53
2019-04-23T12:15:03.384Z,4.33
2019-04-23T12:17:33.178Z,4.50
2019-04-23T12:20:13.062Z,4.67
2019-04-23T12:22:41.522Z,5.00
2019-04-23T12:27:33.416Z,4.60
2019-04-23T12:30:14.724Z,4.90
2019-04-23T12:40:21.199Z,4.97
2019-04-23T12:42:54.029Z,4.70
2019-04-23T12:52:51.210Z,4.67
2019-04-23T12:55:30.270Z,4.67
2019-04-23T12:57:46.717Z,4.50
2019-04-23T13:00:22.448Z,4.27
2019-04-23T13:05:23.242Z,4.80
2019-04-23T13:10:20.963Z,5.10
2019-04-23T13:12:50.304Z,5.33
2019-04-23T13:15:18.888Z,4.77
2019-04-23T13:17:50.615Z,4.57
2019-04-23T13:22:58.199Z,4.77
2019-04-23T13:25:32.520Z,4.73
2019-04-23T13:28:08.314Z,4.30
2019-04-23T13:30:31.508Z,4.63
2019-04-23T13:35:40.483Z,5.07
2019-04-23T13:40:24.492Z,4.57
2019-04-23T13:45:49.767Z,4.87
2019-04-23T13:50:37.478Z,5.07
2019-04-23T13:53:18.571Z,5.13
2019-04-23T13:56:25.233Z,4.80
2019-04-23T13:58:54.993Z,5.13
2019-04-23T14:01:33.583Z,4.63
2019-04-23T14:04:56.085Z,5.13
2019-04-23T14:07:24.889Z,4.93
2019-04-23T14:12:22.252Z,5.00
2019-04-23T14:14:56.370Z,5.23
2019-04-23T14:19:53.446Z,5.10
2019-04-23T14:27:52.069Z,4.90
2019-04-23T14:32:48.678Z,4.83
2019-04-23T14:35:21.690Z,5.10
2019-04-23T14:37:59.135Z,4.90
2019-04-23T14:40:19.614Z,5.50
2019-04-23T14:43:03.406Z,5.47
2019-04-23T14:45:29.321Z,5.73
2019-04-23T14:48:00.837Z,5.10
2019-04-23T14:53:14.584Z,5.93
2019-04-23T14:55:49.045Z,6.27
2019-04-23T14:58:18.126Z,5.50
2019-04-23T15:03:23.624Z,5.90
2019-04-23T15:05:45.847Z,5.67
2019-04-23T15:08:15.275Z,5.67
2019-04-23T15:11:03.711Z,5.57
2019-04-23T15:13:20.497Z,5.53
2019-04-23T15:15:48.847Z,5.80
2019-04-23T15:18:35.345Z,6.37
2019-04-23T15:24:04.147Z,6.10
2019-04-23T15:27:22.014Z,7.63
2019-04-23T15:28:43.164Z,6.33
2019-04-23T15:31:41.243Z,6.30
2019-04-23T15:36:50.904Z,6.87
2019-04-23T15:45:01.583Z,6.60
2019-04-23T15:47:39.195Z,6.30
2019-04-23T15:50:14.474Z,6.80
2019-04-23T15:52:53.085Z,6.63
2019-04-23T15:55:06.047Z,6.40
2019-04-23T16:00:25.300Z,5.40
2019-04-23T16:02:18.360Z,6.13
2019-04-23T16:05:41.305Z,6.00
2019-04-23T16:08:50.008Z,4.47
2019-04-23T16:11:29.756Z,4.70
2019-04-23T16:14:05.894Z,4.63
2019-04-23T16:16:18.749Z,5.07
2019-04-23T16:18:52.016Z,4.60
2019-04-23T16:21:28.962Z,4.17
2019-04-23T16:23:50.427Z,4.27
2019-04-23T16:26:24.182Z,4.37
2019-04-23T16:29:15.750Z,4.30
2019-04-23T16:34:17.776Z,4.17
2019-04-23T16:36:32.389Z,4.53
2019-04-23T16:42:02.034Z,4.10
2019-04-23T16:44:38.326Z,4.20
2019-04-23T16:47:03.793Z,4.40
2019-04-23T16:49:36.278Z,4.40
2019-04-23T16:52:07.907Z,4.00
2019-04-23T16:54:42.193Z,4.30
2019-04-23T16:57:33.209Z,4.40
2019-04-23T16:59:49.455Z,3.87
2019-04-23T17:02:14.978Z,4.00
2019-04-23T17:07:06.894Z,4.07
2019-04-23T17:12:10.798Z,4.10
2019-04-23T17:14:48.576Z,4.10
2019-04-23T17:17:13.231Z,4.07
2019-04-23T17:19:47.482Z,4.60
2019-04-23T17:22:17.689Z,3.93
2019-04-23T17:25:07.492Z,3.80
2019-04-23T17:27:31.138Z,4.90
2019-04-23T17:29:58.887Z,3.60
2019-04-23T17:32:27.930Z,4.53
2019-04-23T17:35:11.654Z,4.13
2019-04-23T17:40:26.529Z,4.40
2019-04-23T17:42:45.431Z,4.40
2019-04-23T17:45:30.827Z,4.50
2019-04-23T17:47:57.663Z,4.60
2019-04-23T17:52:56.195Z,4.53
2019-04-23T17:55:26.079Z,4.67
2019-04-23T17:57:59.043Z,4.53
2019-04-23T18:00:43.533Z,4.23
2019-04-23T18:03:05.980Z,4.53
2019-04-23T18:05:18.003Z,4.30
2019-04-23T18:08:07.671Z,4.70
2019-04-23T18:12:57.832Z,4.60
2019-04-23T18:15:17.704Z,4.23
2019-04-23T18:18:02.418Z,4.40
2019-04-23T18:20:37.511Z,4.50
2019-04-23T18:25:56.868Z,5.67
2019-04-23T18:28:15.124Z,4.33
2019-04-23T18:31:00.847Z,5.73
2019-04-23T18:33:57.629Z,6.10
2019-04-23T18:35:58.023Z,4.83
2019-04-23T18:38:31.881Z,6.03
2019-04-23T18:43:29.416Z,6.20
2019-04-23T18:48:45.478Z,4.67
2019-04-23T18:56:06.928Z,5.53
2019-04-23T18:58:44.735Z,6.60
2019-04-23T19:06:29.806Z,4.87
2019-04-23T19:12:16.230Z,5.47
2019-04-23T19:14:32.185Z,5.43
2019-04-23T19:17:31.039Z,5.40
2019-04-23T19:19:34.527Z,5.27
2019-04-23T19:22:15.618Z,5.30
2019-04-23T19:29:41.699Z,5.03
2019-04-23T19:39:40.574Z,5.30
2019-04-23T19:44:40.998Z,4.90
2019-04-23T19:47:19.658Z,5.37
2019-04-23T19:49:38.905Z,4.97
2019-04-23T19:52:03.021Z,5.20
2019-04-23T19:54:47.691Z,5.27
2019-04-23T20:02:08.967Z,5.37
2019-04-23T20:12:26.219Z,5.17
2019-04-23T20:14:41.597Z,5.80
2019-04-23T20:27:15.538Z,5.10
2019-04-23T20:30:14.258Z,4.80
2019-04-23T20:46:08.690Z,4.80
2019-04-23T20:48:40.493Z,4.70
2019-04-23T20:50:58.837Z,4.57
2019-04-23T20:53:40.004Z,4.30
2019-04-23T20:56:07.287Z,4.40
2019-04-23T20:58:38.916Z,5.43
2019-04-23T21:01:34.585Z,4.50
2019-04-23T21:03:55.458Z,4.10
2019-04-23T21:06:28.574Z,3.90
2019-04-23T21:09:24.586Z,4.13
2019-04-23T21:11:29.069Z,4.00
2019-04-23T21:16:34.346Z,3.83
2019-04-23T21:18:55.018Z,4.00
2019-04-23T21:21:39.983Z,3.83
2019-04-23T21:24:03.962Z,3.57
2019-04-23T21:26:25.210Z,3.93
2019-04-23T21:31:36.986Z,4.03
2019-04-23T21:36:40.361Z,3.90
2019-04-23T21:39:18.454Z,3.70
2019-04-23T21:46:51.360Z,3.93
2019-04-23T21:49:25.181Z,3.60
2019-04-23T21:51:50.827Z,3.90
2019-04-23T21:54:12.402Z,4.17
2019-04-23T21:56:47.089Z,5.37
2019-04-23T21:59:10.138Z,3.67
2019-04-23T22:04:29.299Z,3.77
2019-04-23T22:09:22.643Z,4.00
2019-04-23T22:17:18.365Z,3.80
2019-04-23T22:19:19.755Z,4.10
2019-04-23T22:24:21.587Z,4.20
2019-04-23T22:26:53.308Z,3.80
2019-04-23T22:29:37.940Z,4.20
2019-04-23T22:31:59.165Z,3.83
2019-04-23T22:39:41.895Z,3.90
2019-04-23T22:44:50.929Z,3.93
2019-04-23T22:47:15.545Z,3.60
2019-04-23T22:52:19.247Z,3.43
2019-04-23T22:54:40.077Z,3.80
2019-04-23T22:57:04.989Z,3.67
2019-04-23T22:59:46.720Z,3.47
2019-04-23T23:02:41.670Z,4.00
2019-04-23T23:05:10.323Z,3.60
2019-04-23T23:07:38.960Z,4.03
2019-04-23T23:10:12.914Z,3.97
2019-04-23T23:12:36.562Z,3.40
2019-04-23T23:15:00.948Z,3.60
2019-04-23T23:17:32.583Z,3.70
2019-04-23T23:20:08.506Z,4.13
2019-04-23T23:22:27.786Z,3.63
2019-04-23T23:25:06.586Z,3.80
2019-04-23T23:27:29.999Z,3.60
2019-04-23T23:30:02.785Z,3.90
2019-04-23T23:32:30.593Z,3.90
2019-04-23T23:37:28.272Z,3.67
2019-04-23T23:40:04.962Z,4.23
2019-04-23T23:42:37.497Z,3.20
2019-04-23T23:45:06.349Z,3.70
2019-04-23T23:50:16.226Z,3.63
2019-04-23T23:52:32.867Z,3.73
2019-04-23T23:55:01.768Z,4.10
2019-04-23T23:57:23.549Z,3.83
